Time;durP1;ratioP1;P1;durP2;ratioP2;P2;SDS_P1;SDS_P2;PMS_P1;PMS_P2;Temp;Humidity;BMP_temperature;BMP_pressure;BME280_temperature;BME280_humidity;BME280_pressure;Samples;Min_cycle;Max_cycle;Signal;HPM_P1;HPM_P2
2022/11/30 00:00:32;;;;;;;8.20;3.80;;;;;;;3.88;48.16;101372.84;1683091;85;21176;-80
2022/11/30 00:03:37;;;;;;;13.40;4.50;;;;;;;3.46;48.61;101383.43;1684243;85;21165;-79
2022/11/30 00:06:43;;;;;;;14.50;5.08;;;;;;;3.75;47.91;101370.59;1687466;85;21168;-81
2022/11/30 00:09:49;;;;;;;11.48;7.97;;;;;;;3.69;47.81;101390.84;1670473;83;21177;-81
2022/11/30 00:12:55;;;;;;;11.05;4.95;;;;;;;3.78;47.53;101372.61;1687317;85;21140;-79
2022/11/30 00:16:03;;;;;;;12.80;4.15;;;;;;;4.02;47.54;101358.33;1684945;85;21180;-80
2022/11/30 00:19:09;;;;;;;10.98;4.05;;;;;;;3.91;47.33;101355.04;1669467;85;21220;-81
2022/11/30 00:22:15;;;;;;;11.60;4.65;;;;;;;4.29;46.62;101359.08;1684851;85;21244;-81
2022/11/30 00:25:20;;;;;;;21.17;7.12;;;;;;;4.22;46.67;101356.91;1684576;85;21813;-80
2022/11/30 00:28:27;;;;;;;12.25;5.85;;;;;;;4.37;46.13;101357.14;1688675;83;21263;-80
2022/11/30 00:31:33;;;;;;;14.43;4.70;;;;;;;4.27;46.15;101364.20;1718533;83;21167;-81
2022/11/30 00:34:39;;;;;;;11.12;4.60;;;;;;;4.64;45.56;101358.34;1720949;83;21442;-80
2022/11/30 00:37:46;;;;;;;11.73;4.87;;;;;;;4.29;46.02;101364.98;1716997;83;21202;-81
2022/11/30 00:40:46;;;;;;;15.05;3.80;;;;;;;4.05;45.96;101366.25;1720399;83;21228;-80
2022/11/30 00:43:38;;;;;;;11.63;4.60;;;;;;;4.56;45.62;101363.45;1716553;83;21155;-80
2022/11/30 00:46:24;;;;;;;22.62;7.12;;;;;;;4.30;45.51;101382.95;1718703;83;21142;-80
2022/11/30 00:49:17;;;;;;;9.48;5.72;;;;;;;3.99;45.78;101382.91;1720911;83;21192;-81
2022/11/30 00:52:22;;;;;;;17.48;3.65;;;;;;;4.03;46.11;101374.45;1720491;83;21169;-80
2022/11/30 00:55:30;;;;;;;15.45;7.58;;;;;;;4.10;45.73;101377.61;1718065;82;21200;-81
2022/11/30 00:58:35;;;;;;;22.35;7.33;;;;;;;4.00;45.49;101367.03;1718839;83;21832;-80
2022/11/30 01:01:34;;;;;;;11.78;5.60;;;;;;;3.80;46.02;101367.08;1718779;83;21789;-81
2022/11/30 01:04:39;;;;;;;5.72;3.37;;;;;;;4.02;46.06;101363.25;1718465;83;21200;-80
2022/11/30 01:07:46;;;;;;;13.48;4.92;;;;;;;3.94;45.79;101376.95;1718929;83;21177;-79
2022/11/30 01:10:56;;;;;;;21.02;5.35;;;;;;;4.08;45.73;101365.52;1717753;83;21781;-80
2022/11/30 01:14:01;;;;;;;12.58;5.75;;;;;;;3.82;46.22;101370.08;1719003;83;21781;-80
2022/11/30 01:17:08;;;;;;;10.43;5.30;;;;;;;3.88;46.51;101378.25;1718003;83;21224;-81
2022/11/30 01:20:14;;;;;;;10.03;4.62;;;;;;;4.29;46.09;101373.97;1717847;83;21484;-81
2022/11/30 01:23:20;;;;;;;12.93;4.72;;;;;;;3.96;46.56;101375.87;1715387;83;21193;-80
2022/11/30 01:26:26;;;;;;;13.13;4.03;;;;;;;4.26;45.92;101366.05;1717705;83;21172;-81
2022/11/30 01:29:31;;;;;;;10.32;3.33;;;;;;;4.23;45.96;101355.43;1716024;83;21240;-82
2022/11/30 01:32:37;;;;;;;12.30;5.00;;;;;;;4.28;45.90;101357.34;1708228;84;21813;-82
2022/11/30 01:35:44;;;;;;;15.75;4.03;;;;;;;4.44;45.83;101364.36;1707773;84;21220;-81
2022/11/30 01:38:54;;;;;;;13.65;6.20;;;;;;;4.38;45.18;101372.94;1709049;84;21190;-80
2022/11/30 01:42:00;;;;;;;9.58;3.42;;;;;;;4.68;44.78;101359.85;1709122;84;21193;-80
2022/11/30 01:45:06;;;;;;;10.85;4.65;;;;;;;4.78;44.65;101366.31;1708374;84;21236;-79
2022/11/30 01:48:13;;;;;;;12.03;4.53;;;;;;;4.91;44.37;101371.70;1708077;84;21252;-80
2022/11/30 01:51:19;;;;;;;13.95;3.52;;;;;;;4.70;44.41;101378.20;1708859;84;21188;-80
2022/11/30 01:54:31;;;;;;;14.60;4.78;;;;;;;4.64;44.82;101371.03;1708767;84;21215;-78
2022/11/30 01:57:54;;;;;;;14.35;3.75;;;;;;;4.90;44.38;101367.77;1709152;84;21177;-80
2022/11/30 02:01:00;;;;;;;20.15;4.33;;;;;;;4.76;44.55;101357.45;1707632;84;21221;-79
2022/11/30 02:04:37;;;;;;;11.33;3.20;;;;;;;5.04;43.91;101352.69;1707666;84;21737;-80
2022/11/30 02:07:43;;;;;;;22.67;4.35;;;;;;;4.95;43.69;101350.17;1708971;84;21177;-80
2022/11/30 02:10:54;;;;;;;20.27;3.60;;;;;;;5.29;43.05;101352.55;1707628;84;21225;-80
2022/11/30 02:14:24;;;;;;;24.23;3.72;;;;;;;5.34;42.78;101350.34;1687433;85;21189;-80
2022/11/30 02:17:48;;;;;;;13.38;3.40;;;;;;;5.49;42.70;101360.50;1688573;85;21237;-81
2022/11/30 02:21:15;;;;;;;12.55;3.55;;;;;;;5.28;42.90;101349.95;1687414;85;21178;-81
2022/11/30 02:24:31;;;;;;;18.45;3.80;;;;;;;5.43;42.51;101350.62;1688550;85;21232;-81
2022/11/30 02:28:08;;;;;;;14.45;4.28;;;;;;;5.05;42.95;101351.70;1670924;85;21225;-80
2022/11/30 02:31:17;;;;;;;13.90;3.83;;;;;;;4.88;43.32;101355.16;1680399;84;21196;-80
2022/11/30 02:34:25;;;;;;;9.27;3.27;;;;;;;4.97;43.35;101350.91;1688047;85;21748;-81
2022/11/30 02:37:30;;;;;;;17.73;3.95;;;;;;;4.98;43.34;101351.77;1688910;85;21516;-80
2022/11/30 02:40:35;;;;;;;9.45;2.92;;;;;;;4.71;43.45;101352.86;1687632;85;21227;-80
2022/11/30 02:43:41;;;;;;;20.52;3.22;;;;;;;-0.50;51.99;101355.61;1688077;85;21179;-80
2022/11/30 02:47:26;;;;;;;11.43;3.70;;;;;;;-2.07;60.17;101353.03;1688975;85;21753;-80
2022/11/30 02:50:24;;;;;;;13.53;4.57;;;;;;;-2.32;63.41;101358.61;1689385;85;21267;-80
2022/11/30 02:53:30;;;;;;;12.93;2.83;;;;;;;-2.40;65.48;101353.19;1685109;85;21773;-80
2022/11/30 02:56:35;;;;;;;12.68;3.30;;;;;;;-2.41;65.88;101342.94;1689102;85;21307;-81
2022/11/30 02:59:41;;;;;;;13.58;3.15;;;;;;;-2.25;65.86;101344.48;1688449;85;21214;-80
2022/11/30 03:02:47;;;;;;;21.02;4.72;;;;;;;-1.80;63.76;101347.30;1688816;81;21236;-80
2022/11/30 03:05:54;;;;;;;11.83;3.75;;;;;;;-2.30;66.26;101353.68;1687689;85;21771;-80
2022/11/30 03:09:00;;;;;;;9.03;3.08;;;;;;;-2.30;66.79;101350.53;1687601;85;21187;-79
2022/11/30 03:12:05;;;;;;;16.20;4.15;;;;;;;-2.12;67.43;101350.14;1689096;85;21184;-80
2022/11/30 03:15:12;;;;;;;7.33;3.80;;;;;;;-1.19;64.00;101338.11;1689018;85;21234;-80
2022/11/30 03:18:17;;;;;;;18.95;4.12;;;;;;;-0.53;61.27;101326.20;1687565;85;21264;-80
2022/11/30 03:21:23;;;;;;;12.82;3.58;;;;;;;-0.19;59.78;101324.40;1687577;85;21180;-80
2022/11/30 03:24:28;;;;;;;11.45;3.00;;;;;;;-0.03;59.01;101314.56;1687990;85;21787;-81
2022/11/30 03:27:27;;;;;;;14.47;4.08;;;;;;;0.23;58.68;101312.62;1688925;85;21215;-81
2022/11/30 03:30:34;;;;;;;8.98;3.40;;;;;;;0.27;57.68;101313.80;1687854;85;21756;-81
2022/11/30 03:33:40;;;;;;;8.68;3.02;;;;;;;0.25;57.91;101303.14;1688572;83;21207;-80
2022/11/30 03:36:46;;;;;;;16.30;3.85;;;;;;;-0.71;61.00;101317.75;1688905;85;21175;-80
2022/11/30 03:39:52;;;;;;;18.40;4.22;;;;;;;-0.70;61.67;101312.80;1688372;85;21211;-80
2022/11/30 03:42:57;;;;;;;12.30;3.10;;;;;;;-1.53;64.36;101306.22;1688627;85;21693;-81
2022/11/30 03:46:03;;;;;;;12.75;3.27;;;;;;;-1.90;65.47;101303.96;1687570;85;21187;-80
2022/11/30 03:49:03;;;;;;;19.55;4.50;;;;;;;-2.25;67.70;101300.73;1688670;85;21199;-80
2022/11/30 03:51:54;;;;;;;22.30;3.15;;;;;;;-2.23;67.95;101302.86;1688943;85;21218;-79
2022/11/30 03:54:40;;;;;;;10.55;3.95;;;;;;;-1.60;67.25;101281.96;1688115;85;21255;-79
2022/11/30 03:57:32;;;;;;;22.73;4.12;;;;;;;-0.42;62.17;101291.58;1688840;85;21167;-79
2022/11/30 04:00:37;;;;;;;12.78;3.10;;;;;;;-0.05;60.15;101289.10;1687840;85;21247;-79
2022/11/30 04:03:44;;;;;;;12.75;4.55;;;;;;;0.07;59.03;101282.64;1688517;85;21255;-79
2022/11/30 04:06:49;;;;;;;20.12;3.35;;;;;;;0.21;58.50;101302.43;1688962;85;21196;-79
2022/11/30 04:09:55;;;;;;;15.65;3.75;;;;;;;0.25;58.70;101308.04;1687621;85;21270;-80
2022/11/30 04:13:02;;;;;;;14.53;3.47;;;;;;;0.34;58.18;101306.66;1688832;85;21176;-79
2022/11/30 04:16:08;;;;;;;17.27;4.28;;;;;;;0.36;57.64;101316.84;1688793;85;21168;-80
2022/11/30 04:19:13;;;;;;;18.52;4.30;;;;;;;-0.83;58.07;101324.17;1688634;85;21246;-79
2022/11/30 04:22:18;;;;;;;13.65;4.67;;;;;;;-2.18;66.18;101333.87;1696289;83;21180;-80
2022/11/30 04:25:24;;;;;;;13.75;3.72;;;;;;;-2.02;65.23;101328.69;1724841;83;21768;-79
2022/11/30 04:28:30;;;;;;;15.43;4.28;;;;;;;-2.36;67.75;101305.22;1725875;83;21169;-79
2022/11/30 04:31:36;;;;;;;23.75;3.45;;;;;;;-2.40;68.26;101310.31;1725782;79;21196;-80
2022/11/30 04:34:43;;;;;;;19.77;3.62;;;;;;;-2.45;68.83;101310.99;1733122;82;21875;-78
2022/11/30 04:37:50;;;;;;;17.27;3.52;;;;;;;-2.45;69.03;101309.19;1719442;83;21200;-81
2022/11/30 04:40:56;;;;;;;15.30;3.27;;;;;;;-2.47;68.86;101294.13;1700682;84;22086;-80
2022/11/30 04:44:02;;;;;;;11.68;3.83;;;;;;;-2.50;68.96;101304.97;1701831;84;21207;-81
2022/11/30 04:47:07;;;;;;;16.95;4.45;;;;;;;-2.49;69.07;101306.70;1701662;84;21220;-82
2022/11/30 04:50:14;;;;;;;15.55;4.33;;;;;;;-2.50;69.62;101319.71;1700822;84;21195;-81
2022/11/30 04:53:20;;;;;;;23.10;4.83;;;;;;;-2.50;69.44;101313.02;1701838;84;21194;-78
2022/11/30 04:56:26;;;;;;;10.93;4.20;;;;;;;-2.50;69.37;101319.23;1700749;84;21175;-80
2022/11/30 04:59:27;;;;;;;12.15;3.20;;;;;;;-2.47;69.17;101321.80;1701506;84;21227;-79
2022/11/30 05:02:34;;;;;;;17.70;3.25;;;;;;;-2.46;69.57;101312.81;1700626;84;21728;-82
2022/11/30 05:05:39;;;;;;;11.05;3.35;;;;;;;-1.78;68.37;101320.44;1679652;84;22125;-82
2022/11/30 05:08:44;;;;;;;9.83;3.08;;;;;;;-2.36;69.58;101318.14;1700778;84;21191;-82
2022/11/30 05:11:50;;;;;;;23.42;4.65;;;;;;;-2.37;69.39;101327.61;1700473;84;21144;-81
2022/11/30 05:14:56;;;;;;;15.00;3.52;;;;;;;-2.33;68.95;101324.72;1701355;84;21779;-81
2022/11/30 05:18:07;;;;;;;15.63;4.03;;;;;;;-2.30;68.93;101322.86;1701679;84;21215;-82
2022/11/30 05:21:15;;;;;;;14.53;4.25;;;;;;;-2.28;68.89;101323.64;1701408;84;21625;-82
2022/11/30 05:24:21;;;;;;;13.25;3.20;;;;;;;-2.24;68.76;101337.31;1701368;84;21203;-81
2022/11/30 05:27:27;;;;;;;8.78;3.67;;;;;;;-1.89;67.67;101311.06;1701587;84;21728;-80
2022/11/30 05:30:34;;;;;;;14.03;4.00;;;;;;;-2.11;68.32;101321.94;1700873;84;21191;-81
2022/11/30 05:33:39;;;;;;;12.63;3.15;;;;;;;-2.22;68.58;101326.03;1702889;82;21844;-80
2022/11/30 05:36:45;;;;;;;13.85;4.17;;;;;;;-2.19;68.57;101335.28;1687468;83;21734;-78
2022/11/30 05:39:51;;;;;;;10.60;3.27;;;;;;;-2.18;68.49;101324.95;1687990;85;21208;-79
2022/11/30 05:43:02;;;;;;;13.88;3.70;;;;;;;-2.17;68.73;101335.60;1673165;83;21177;-79
2022/11/30 05:46:09;;;;;;;13.58;3.08;;;;;;;-2.21;68.40;101342.07;1669947;83;21258;-81
2022/11/30 05:49:15;;;;;;;20.52;3.85;;;;;;;-2.22;68.27;101343.45;1680447;82;21219;-80
2022/11/30 05:52:21;;;;;;;7.50;2.92;;;;;;;-2.20;68.48;101334.89;1686961;83;21811;-80
2022/11/30 05:55:26;;;;;;;12.23;3.30;;;;;;;-2.18;68.62;101342.38;1674231;83;21192;-80
2022/11/30 05:58:32;;;;;;;13.43;3.17;;;;;;;-2.13;68.02;101347.92;1664990;83;21145;-79
2022/11/30 06:01:38;;;;;;;11.95;3.17;;;;;;;-2.11;67.44;101355.92;1681851;83;21248;-79
2022/11/30 06:04:43;;;;;;;19.62;3.72;;;;;;;-2.01;67.66;101345.17;1675808;85;21906;-79
2022/11/30 06:07:48;;;;;;;21.30;2.90;;;;;;;-2.05;67.48;101343.56;1677683;83;21809;-80
2022/11/30 06:10:55;;;;;;;19.10;4.42;;;;;;;-2.02;67.90;101344.78;1683178;83;21224;-80
2022/11/30 06:14:01;;;;;;;25.85;4.35;;;;;;;-1.99;67.38;101347.77;1692632;83;21256;-81
2022/11/30 06:17:08;;;;;;;13.32;4.75;;;;;;;-1.94;67.16;101355.99;1672431;83;21169;-81
2022/11/30 06:20:16;;;;;;;14.40;4.17;;;;;;;-1.93;65.87;101352.40;1671310;83;21220;-81
2022/11/30 06:23:21;;;;;;;22.98;4.15;;;;;;;-1.93;65.98;101357.76;1674754;83;21184;-78
2022/11/30 06:26:27;;;;;;;17.00;4.33;;;;;;;-1.91;65.81;101368.41;1678863;83;21160;-79
2022/11/30 06:29:33;;;;;;;11.08;3.67;;;;;;;-1.55;65.12;101372.52;1680488;83;21208;-81
2022/11/30 06:32:39;;;;;;;14.33;7.67;;;;;;;-1.86;65.96;101356.52;1682119;83;21608;-81
2022/11/30 06:35:53;;;;;;;25.55;8.60;;;;;;;-1.80;65.12;101368.77;1682315;83;21232;-81
2022/11/30 06:38:59;;;;;;;27.67;5.70;;;;;;;-1.52;63.75;101364.78;1676242;83;21857;-81
2022/11/30 06:42:04;;;;;;;24.00;4.30;;;;;;;-0.71;63.51;101371.02;1682593;83;21185;-81
2022/11/30 06:45:10;;;;;;;11.12;5.15;;;;;;;-1.56;63.29;101372.09;1679268;83;21749;-81
2022/11/30 06:48:16;;;;;;;25.45;7.17;;;;;;;-1.48;63.29;101365.91;1676869;85;21732;-81
2022/11/30 06:51:20;;;;;;;18.48;7.80;;;;;;;-1.50;63.71;101358.41;1681221;85;21758;-81
2022/11/30 06:54:26;;;;;;;22.25;3.85;;;;;;;-1.43;63.88;101367.02;1681505;85;21213;-81
2022/11/30 06:57:39;;;;;;;15.08;3.50;;;;;;;-1.40;62.87;101358.36;1681316;83;21800;-81
2022/11/30 07:00:45;;;;;;;27.42;5.55;;;;;;;-1.37;62.83;101368.92;1674620;83;21354;-81
2022/11/30 07:03:51;;;;;;;17.95;3.15;;;;;;;-1.33;61.71;101362.47;1685737;83;21580;-82
2022/11/30 07:06:57;;;;;;;17.32;4.37;;;;;;;-1.24;62.41;101367.00;1676997;83;21213;-80
2022/11/30 07:10:02;;;;;;;16.55;5.17;;;;;;;-1.23;62.01;101352.63;1677588;83;21216;-80
2022/11/30 07:13:10;;;;;;;28.70;5.28;;;;;;;-1.15;62.49;101352.64;1675303;83;21172;-80
2022/11/30 07:16:16;;;;;;;19.57;4.20;;;;;;;-1.10;61.53;101365.84;1680225;83;21188;-80
2022/11/30 07:19:22;;;;;;;25.72;4.25;;;;;;;-1.04;61.88;101354.79;1676049;83;21766;-80
2022/11/30 07:22:27;;;;;;;25.50;4.00;;;;;;;-0.97;61.53;101357.58;1679570;83;21773;-81
2022/11/30 07:29:00;;;;;;;23.65;4.50;;;;;;;-0.94;60.30;101368.17;1674027;83;21173;-80
2022/11/30 07:32:05;;;;;;;26.35;4.53;;;;;;;-0.96;60.72;101364.68;1656200;83;21224;-81
2022/11/30 07:35:11;;;;;;;20.57;6.15;;;;;;;-1.01;59.69;101366.73;1675401;83;21228;-80
2022/11/30 07:38:17;;;;;;;26.80;8.85;;;;;;;-0.97;60.86;101360.27;1697589;83;21563;-81
2022/11/30 07:41:22;;;;;;;30.25;7.30;;;;;;;-0.95;59.89;101360.17;1678611;83;21180;-81
2022/11/30 07:44:28;;;;;;;27.87;6.87;;;;;;;-0.96;59.42;101362.00;1646047;84;21768;-80
2022/11/30 07:47:33;;;;;;;11.73;2.80;;;;;;;-0.89;60.51;101366.13;1677500;83;21820;-81
2022/11/30 07:50:40;;;;;;;15.08;5.50;;;;;;;-0.83;60.00;101369.84;1683332;83;21196;-81
2022/11/30 07:53:46;;;;;;;14.38;4.47;;;;;;;-0.83;58.98;101355.53;1674347;85;21204;-81
2022/11/30 07:56:52;;;;;;;19.10;5.80;;;;;;;-0.80;60.27;101360.29;1676237;83;21220;-81
2022/11/30 07:59:57;;;;;;;19.75;3.95;;;;;;;-0.72;60.89;101360.36;1666663;85;21235;-81
2022/11/30 08:03:02;;;;;;;26.40;8.35;;;;;;;-0.63;60.46;101366.59;1679269;85;21252;-81
2022/11/30 08:06:11;;;;;;;22.40;4.12;;;;;;;-0.61;58.68;101354.84;1676729;84;21323;-80
2022/11/30 08:09:21;;;;;;;32.65;7.47;;;;;;;-0.62;57.83;101348.17;1672278;83;21302;-80
2022/11/30 08:12:27;;;;;;;16.07;6.08;;;;;;;-0.61;58.16;101353.94;1673128;85;21267;-80
2022/11/30 08:15:33;;;;;;;19.42;9.28;;;;;;;-0.61;59.66;101341.84;1679701;83;21681;-79
2022/11/30 08:18:40;;;;;;;14.75;4.42;;;;;;;-0.59;58.39;101335.46;1671815;83;21188;-81
2022/11/30 08:21:48;;;;;;;15.93;6.50;;;;;;;-0.55;58.07;101343.77;1673618;83;21179;-80
2022/11/30 08:25:00;;;;;;;17.35;4.50;;;;;;;-0.48;58.79;101342.95;1681762;83;21238;-81
2022/11/30 08:28:07;;;;;;;24.52;8.73;;;;;;;-0.42;57.05;101348.03;1686411;83;21659;-82
2022/11/30 08:31:17;;;;;;;23.77;9.53;;;;;;;-0.30;56.31;101335.73;1682307;83;21197;-80
2022/11/30 08:34:22;;;;;;;15.38;5.55;;;;;;;-0.23;56.81;101330.44;1675558;85;21204;-79
2022/11/30 08:37:30;;;;;;;20.08;5.90;;;;;;;-0.30;55.98;101343.33;1673050;83;21232;-80
2022/11/30 08:40:36;;;;;;;17.98;8.73;;;;;;;-0.24;55.62;101335.88;1676228;84;21173;-80
2022/11/30 08:43:41;;;;;;;22.40;8.05;;;;;;;-0.12;55.03;101335.23;1674184;84;21192;-81
2022/11/30 08:46:46;;;;;;;18.82;7.75;;;;;;;-0.05;55.92;101336.62;1638876;86;21236;-80
2022/11/30 08:49:52;;;;;;;24.72;6.17;;;;;;;0.03;55.34;101333.52;1619099;86;21252;-81
2022/11/30 08:52:59;;;;;;;27.65;9.05;;;;;;;0.11;54.62;101325.42;1651639;84;21763;-81
2022/11/30 08:56:10;;;;;;;18.45;6.33;;;;;;;0.22;54.15;101331.07;1658903;84;21217;-81
2022/11/30 08:59:15;;;;;;;31.45;8.85;;;;;;;0.28;53.69;101325.81;1651368;84;21239;-81
2022/11/30 09:02:22;;;;;;;39.65;12.28;;;;;;;0.33;54.34;101328.25;1637388;85;21235;-79
2022/11/30 09:05:28;;;;;;;27.48;7.65;;;;;;;2.59;48.52;101323.92;1636710;86;21224;-80
2022/11/30 09:08:33;;;;;;;16.60;3.30;;;;;;;3.23;46.84;101322.30;1658919;84;21258;-79
2022/11/30 09:11:39;;;;;;;35.55;7.62;;;;;;;0.90;51.03;101324.55;1662403;84;21212;-79
2022/11/30 09:14:44;;;;;;;26.42;5.50;;;;;;;0.57;52.09;101316.13;1678645;83;21244;-80
2022/11/30 09:17:53;;;;;;;26.55;4.70;;;;;;;0.47;53.46;101306.36;1624889;86;21506;-79
2022/11/30 09:20:59;;;;;;;17.73;3.25;;;;;;;0.48;53.49;101304.53;1679060;83;21492;-80
2022/11/30 09:24:05;;;;;;;19.62;8.55;;;;;;;0.48;53.73;101305.88;1649434;84;21227;-80
2022/11/30 09:27:09;;;;;;;22.93;5.58;;;;;;;0.51;53.11;101312.41;1622154;87;21216;-80
2022/11/30 09:30:16;;;;;;;17.87;5.87;;;;;;;0.47;53.15;101302.77;1665614;84;21192;-80
2022/11/30 09:33:22;;;;;;;26.95;7.05;;;;;;;0.50;53.76;101303.95;1634201;86;21460;-81
2022/11/30 09:36:29;;;;;;;17.48;5.05;;;;;;;0.62;54.08;101309.98;1679829;83;21717;-81
2022/11/30 09:39:35;;;;;;;33.23;6.28;;;;;;;0.75;55.20;101315.06;1682150;83;21220;-80
2022/11/30 09:43:29;;;;;;;23.07;6.83;;;;;;;2.33;51.33;101300.44;1678546;83;21852;-81
2022/11/30 09:46:51;;;;;;;19.12;4.28;;;;;;;3.24;48.29;101313.70;1681396;83;21227;-81
2022/11/30 09:49:56;;;;;;;30.15;7.28;;;;;;;3.90;46.39;101302.34;1688574;83;21639;-81
2022/11/30 09:53:10;;;;;;;28.05;4.22;;;;;;;4.01;44.68;101317.35;1673760;84;21149;-82
2022/11/30 09:56:30;;;;;;;21.93;3.62;;;;;;;3.88;45.32;101313.78;1688892;82;21642;-82
2022/11/30 09:59:38;;;;;;;24.85;5.25;;;;;;;4.04;45.32;101295.45;1698437;83;21184;-81
2022/11/30 10:02:45;;;;;;;13.35;3.12;;;;;;;4.42;45.09;101293.15;1686108;83;21205;-81
2022/11/30 10:06:03;;;;;;;14.58;3.55;;;;;;;4.32;45.88;101295.67;1682258;83;21244;-81
2022/11/30 10:09:45;;;;;;;18.00;3.80;;;;;;;4.95;44.95;101295.08;1830212;76;22232;-77
2022/11/30 10:12:57;;;;;;;20.10;7.58;;;;;;;4.93;44.63;101297.88;1812361;77;21153;-77
2022/11/30 10:16:26;;;;;;;14.40;5.00;;;;;;;4.96;44.29;101292.73;1755447;77;21169;-77
2022/11/30 10:19:54;;;;;;;12.75;3.67;;;;;;;5.02;44.72;101291.77;1805753;77;21236;-77
2022/11/30 10:23:20;;;;;;;18.32;5.55;;;;;;;4.81;44.63;101288.84;1818140;77;21166;-77
2022/11/30 10:26:38;;;;;;;21.17;5.97;;;;;;;4.90;44.13;101284.58;1805337;78;21861;-77
2022/11/30 10:29:47;;;;;;;22.07;4.60;;;;;;;4.92;44.24;101274.97;1809767;78;21652;-77
2022/11/30 10:32:55;;;;;;;19.92;5.97;;;;;;;5.20;45.27;101285.43;1812779;78;21165;-77
2022/11/30 10:36:04;;;;;;;20.45;5.00;;;;;;;5.34;44.98;101283.88;1812257;78;21226;-77
2022/11/30 10:39:14;;;;;;;21.40;6.08;;;;;;;5.44;44.67;101272.30;1798307;79;21211;-78
2022/11/30 10:42:35;;;;;;;18.12;11.45;;;;;;;5.78;44.93;101267.29;1800218;79;21199;-79
2022/11/30 10:45:42;;;;;;;24.15;7.72;;;;;;;6.14;43.66;101270.30;1799773;79;21160;-79
2022/11/30 10:48:43;;;;;;;26.20;5.22;;;;;;;6.03;42.28;101265.38;1802476;78;21203;-78
2022/11/30 10:51:35;;;;;;;31.80;3.87;;;;;;;6.59;41.26;101266.67;1804287;78;21242;-77
2022/11/30 10:54:41;;;;;;;15.72;4.75;;;;;;;6.26;42.68;101270.31;1720836;82;21211;-76
2022/11/30 10:57:47;;;;;;;15.45;3.58;;;;;;;5.98;42.51;101268.97;1734661;82;21226;-77
2022/11/30 11:01:04;;;;;;;16.07;5.00;;;;;;;5.99;42.53;101265.25;1734397;82;21190;-76
2022/11/30 11:04:29;;;;;;;27.80;5.05;;;;;;;6.07;42.07;101265.01;1747407;80;21246;-77
2022/11/30 11:07:34;;;;;;;16.45;3.83;;;;;;;6.23;41.98;101274.63;1733502;82;21230;-77
2022/11/30 11:10:50;;;;;;;15.72;2.80;;;;;;;6.37;43.23;101269.78;1734547;81;21190;-77
2022/11/30 11:13:54;;;;;;;22.05;3.45;;;;;;;6.43;43.09;101272.48;1780871;79;21169;-77
2022/11/30 11:17:13;;;;;;;25.45;3.85;;;;;;;6.48;42.69;101273.47;1786619;79;21220;-77
2022/11/30 11:20:44;;;;;;;27.75;5.30;;;;;;;6.59;42.78;101271.61;1789556;79;21782;-80
2022/11/30 11:23:55;;;;;;;20.50;4.60;;;;;;;6.27;43.37;101272.89;1805824;79;21161;-79
2022/11/30 11:27:02;;;;;;;24.77;4.05;;;;;;;6.51;42.39;101276.80;1801072;79;21866;-79
2022/11/30 11:30:36;;;;;;;24.82;4.97;;;;;;;6.46;42.33;101277.68;1795489;79;21173;-78
2022/11/30 11:33:42;;;;;;;13.15;4.10;;;;;;;6.58;42.81;101275.78;1762193;80;21186;-76
2022/11/30 11:36:48;;;;;;;10.88;3.27;;;;;;;6.58;42.20;101277.14;1755338;80;21186;-76
2022/11/30 11:40:10;;;;;;;30.62;3.90;;;;;;;6.58;42.49;101272.57;1790170;79;21211;-79
2022/11/30 11:43:22;;;;;;;21.20;3.72;;;;;;;6.81;42.12;101276.09;1801749;79;21778;-79
2022/11/30 11:46:28;;;;;;;16.95;2.65;;;;;;;6.94;41.65;101284.59;1784545;80;21161;-77
2022/11/30 11:49:46;;;;;;;25.27;3.72;;;;;;;7.05;41.61;101278.60;1792613;79;21208;-77
2022/11/30 11:52:52;;;;;;;10.85;3.00;;;;;;;7.06;41.61;101269.97;1811561;79;21208;-77
2022/11/30 11:56:11;;;;;;;11.25;2.80;;;;;;;7.17;42.01;101272.62;1804168;79;21429;-77
2022/11/30 12:00:10;;;;;;;14.93;3.20;;;;;;;7.32;42.02;101281.33;1801788;79;21804;-77
2022/11/30 12:03:49;;;;;;;22.82;4.20;;;;;;;7.27;41.76;101280.37;1798631;79;21208;-77
2022/11/30 12:06:54;;;;;;;12.88;3.95;;;;;;;7.29;41.75;101284.30;1801288;79;21149;-76
2022/11/30 12:10:40;;;;;;;13.25;4.33;;;;;;;7.36;41.75;101290.47;1800194;78;21199;-76
2022/11/30 12:13:49;;;;;;;12.73;3.52;;;;;;;7.21;41.76;101294.50;1797590;78;21198;-77
2022/11/30 12:17:11;;;;;;;14.63;4.55;;;;;;;7.02;39.75;101292.48;1805859;78;21341;-77
2022/11/30 12:20:24;;;;;;;24.98;9.43;;;;;;;7.32;39.39;101289.50;1809046;78;21160;-77
2022/11/30 12:23:42;;;;;;;17.87;4.12;;;;;;;7.23;39.18;101286.20;1796521;80;21203;-78
2022/11/30 12:27:08;;;;;;;16.57;3.90;;;;;;;7.40;38.83;101286.48;1794850;80;21176;-77
2022/11/30 12:30:52;;;;;;;18.62;3.37;;;;;;;7.30;38.52;101287.42;1795424;80;21165;-77
2022/11/30 12:34:16;;;;;;;19.12;2.20;;;;;;;6.89;39.42;101295.36;1795812;78;21310;-79
2022/11/30 12:37:51;;;;;;;17.48;2.65;;;;;;;6.86;39.14;101295.61;1815151;78;21140;-76
2022/11/30 12:41:36;;;;;;;7.55;2.40;;;;;;;6.92;39.57;101294.25;1801133;78;21754;-77
2022/11/30 12:45:05;;;;;;;16.80;3.72;;;;;;;6.94;39.12;101294.11;1801604;78;21164;-77
2022/11/30 12:48:38;;;;;;;21.90;5.92;;;;;;;7.16;39.03;101301.70;1826099;78;21224;-77
2022/11/30 12:51:57;;;;;;;16.45;2.92;;;;;;;7.25;39.24;101300.55;1764587;78;21172;-76
2022/11/30 12:55:32;;;;;;;19.48;2.98;;;;;;;7.24;38.81;101299.66;1795856;80;22525;-78
2022/11/30 12:58:55;;;;;;;19.10;4.25;;;;;;;7.04;39.21;101295.06;1791737;78;21771;-78
2022/11/30 13:02:34;;;;;;;16.77;3.37;;;;;;;6.86;39.64;101303.77;1813503;78;21172;-77
2022/11/30 13:05:56;;;;;;;12.13;2.75;;;;;;;6.83;39.74;101299.96;1820145;78;22296;-77
2022/11/30 13:09:42;;;;;;;12.10;2.72;;;;;;;7.00;39.89;101297.17;1721473;82;21180;-77
2022/11/30 13:12:52;;;;;;;20.10;3.92;;;;;;;6.76;40.28;101304.17;1761344;81;21161;-77
2022/11/30 13:15:57;;;;;;;12.98;3.80;;;;;;;6.85;40.84;101312.92;1727940;82;21673;-77
2022/11/30 13:19:07;;;;;;;24.63;4.10;;;;;;;6.74;41.09;101305.30;1754525;81;21153;-77
2022/11/30 13:22:17;;;;;;;21.87;3.70;;;;;;;6.85;41.41;101302.05;1756350;81;21173;-77
2022/11/30 13:25:33;;;;;;;13.00;3.45;;;;;;;6.91;41.17;101299.30;1715576;82;21214;-76
2022/11/30 13:28:50;;;;;;;21.75;3.80;;;;;;;6.86;40.62;101299.69;1752129;81;21233;-77
2022/11/30 13:32:20;;;;;;;17.77;3.65;;;;;;;7.05;40.41;101302.22;1738902;82;21163;-78
2022/11/30 13:35:46;;;;;;;17.30;3.80;;;;;;;6.93;40.52;101296.48;1738882;81;21309;-77
2022/11/30 13:38:53;;;;;;;26.40;3.25;;;;;;;6.96;40.46;101294.34;1759245;81;21818;-76
2022/11/30 13:42:23;;;;;;;11.30;2.70;;;;;;;6.99;40.32;101299.53;1759561;81;21167;-77
2022/11/30 13:45:39;;;;;;;;;;;;;;;6.90;40.38;101296.22;1758540;81;21555;-76
2022/11/30 13:48:47;;;;;;;25.48;3.20;;;;;;;6.89;40.42;101289.92;1759630;81;20641;-77
2022/11/30 13:51:54;;;;;;;12.58;5.33;;;;;;;6.89;40.13;101289.06;1740574;82;21192;-76
2022/11/30 13:55:01;;;;;;;125.20;52.03;;;;;;;6.36;41.30;101293.02;1752790;81;21174;-76
2022/11/30 13:58:11;;;;;;;31.45;8.68;;;;;;;6.56;41.29;101292.23;1740766;82;21249;-76
2022/11/30 14:01:34;;;;;;;26.30;6.70;;;;;;;6.76;41.31;101293.79;1740327;81;21201;-78
2022/11/30 14:04:41;;;;;;;169.87;74.45;;;;;;;6.87;41.64;101291.06;1740889;81;21791;-77
2022/11/30 14:07:50;;;;;;;21.05;4.97;;;;;;;6.89;42.31;101295.86;1756872;81;21229;-77
2022/11/30 14:10:56;;;;;;;16.90;3.55;;;;;;;6.77;42.42;101305.89;1762296;80;21209;-76
2022/11/30 14:14:01;;;;;;;14.70;4.25;;;;;;;6.62;42.34;101311.25;1765940;81;21217;-77
2022/11/30 14:17:07;;;;;;;22.35;10.35;;;;;;;6.49;42.85;101310.02;1763047;81;21182;-76
2022/11/30 14:20:24;;;;;;;24.32;19.52;;;;;;;6.57;43.20;101318.92;1735378;81;21221;-77
2022/11/30 14:23:43;;;;;;;28.52;9.80;;;;;;;6.54;42.77;101315.98;1759107;81;21161;-76
2022/11/30 14:26:46;;;;;;;17.42;5.95;;;;;;;6.40;42.99;101306.73;1763672;81;21213;-77
2022/11/30 14:29:41;;;;;;;20.43;8.53;;;;;;;6.67;42.64;101307.66;1765529;81;21764;-77
2022/11/30 14:32:54;;;;;;;13.70;6.03;;;;;;;6.59;43.06;101315.10;1765872;81;21745;-76
2022/11/30 14:36:02;;;;;;;24.35;10.05;;;;;;;6.51;43.71;101316.72;1765991;81;22026;-77
2022/11/30 14:39:08;;;;;;;29.80;15.08;;;;;;;6.43;41.86;101318.69;1765123;81;21189;-76
2022/11/30 14:42:31;;;;;;;24.05;18.23;;;;;;;6.52;41.42;101322.02;1763818;81;22430;-76